Terminal Aerodrome Forecast
Issued by NWS Cleveland, OH

Home | Current Version | Previous Version | Graphics & Text | Print | Product List | Glossary On
Versions: 1 2 3 4 5 6 7 8 9 10 11 12 13 14 15 16 17 18 19 20
000
FTUS41 KCLE 140300 AAA
TAFCAK
TAF AMD
KCAK 140323Z 1403/1424 01005KT P6SM SCT035
      TEMPO 1403/1407 BKN035
     FM141000 00000KT 3SM BR FEW045
     FM141400 15005KT P6SM SCT040=

USA.gov is the U.S. government's official web portal to all federal, state and local government web resources and services.